createdAt,value
2019-01-22T00:02:03.675Z,54.60
2019-01-22T00:04:35.089Z,50.65
2019-01-22T00:07:05.374Z,49.73
2019-01-22T00:09:35.599Z,56.35
2019-01-22T00:12:06.064Z,54.30
2019-01-22T00:14:36.271Z,54.73
2019-01-22T00:17:06.419Z,60.45
2019-01-22T00:19:36.746Z,52.23
2019-01-22T00:22:06.981Z,52.83
2019-01-22T00:24:37.256Z,56.65
2019-01-22T00:27:07.471Z,58.25
2019-01-22T00:29:37.654Z,53.98
2019-01-22T00:32:07.813Z,58.23
2019-01-22T00:34:38.008Z,47.38
2019-01-22T00:37:08.173Z,54.58
2019-01-22T00:39:38.345Z,53.02
2019-01-22T00:42:08.527Z,57.60
2019-01-22T00:44:38.799Z,60.85
2019-01-22T00:47:08.987Z,52.00
2019-01-22T00:49:39.230Z,57.58
2019-01-22T00:52:09.413Z,55.63
2019-01-22T00:54:39.555Z,53.20
2019-01-22T00:57:09.734Z,53.42
2019-01-22T00:59:39.923Z,53.55
2019-01-22T01:02:10.084Z,58.28
2019-01-22T01:04:41.335Z,52.85
2019-01-22T01:07:11.592Z,52.88
2019-01-22T01:09:41.798Z,54.08
2019-01-22T01:12:12.037Z,54.60
2019-01-22T01:14:42.290Z,54.45
2019-01-22T01:17:12.438Z,52.45
2019-01-22T01:19:42.632Z,53.87
2019-01-22T01:22:12.791Z,59.38
2019-01-22T01:24:42.964Z,53.90
2019-01-22T01:27:13.421Z,56.02
2019-01-22T01:29:43.595Z,58.25
2019-01-22T01:32:13.770Z,52.88
2019-01-22T01:34:43.951Z,60.23
2019-01-22T01:37:14.143Z,52.73
2019-01-22T01:39:44.720Z,49.18
2019-01-22T01:42:14.894Z,47.00
2019-01-22T01:44:45.166Z,52.95
2019-01-22T01:47:15.413Z,50.73
2019-01-22T01:49:45.662Z,63.33
2019-01-22T01:52:16.304Z,54.55
2019-01-22T01:54:46.571Z,58.35
2019-01-22T01:57:16.739Z,56.58
2019-01-22T01:59:46.931Z,58.38
2019-01-22T02:02:17.110Z,54.95
2019-01-22T02:04:47.292Z,58.33
2019-01-22T02:07:17.455Z,49.70
2019-01-22T02:09:47.629Z,56.80
2019-01-22T02:12:21.351Z,52.62
2019-01-22T02:14:58.619Z,48.95
2019-01-22T02:18:04.709Z,53.92
2019-01-22T02:21:19.555Z,51.80
2019-01-22T02:24:27.473Z,59.38
2019-01-22T02:27:37.860Z,60.50
2019-01-22T02:30:25.759Z,56.25
2019-01-22T02:33:20.956Z,60.20
2019-01-22T02:36:31.780Z,49.95
2019-01-22T02:39:20.392Z,60.25
2019-01-22T02:42:18.128Z,55.83
2019-01-22T02:45:32.392Z,58.05
2019-01-22T02:48:34.923Z,46.18
2019-01-22T02:51:14.304Z,56.60
2019-01-22T02:53:58.080Z,53.65
2019-01-22T02:57:27.456Z,60.15
2019-01-22T03:00:42.244Z,50.38
2019-01-22T03:03:51.336Z,64.75
2019-01-22T03:07:08.712Z,48.00
2019-01-22T03:10:32.663Z,43.40
2019-01-22T03:13:43.141Z,60.23
2019-01-22T03:16:51.663Z,52.40
2019-01-22T03:19:34.264Z,56.90
2019-01-22T03:22:18.017Z,53.23
2019-01-22T03:25:35.216Z,46.18
2019-01-22T03:28:27.770Z,52.85
2019-01-22T03:31:48.649Z,49.55
2019-01-22T03:34:34.395Z,51.53
2019-01-22T03:37:34.912Z,52.08
2019-01-22T03:40:49.589Z,61.48
2019-01-22T03:44:10.046Z,56.37
2019-01-22T03:47:12.776Z,50.63
2019-01-22T03:50:36.200Z,43.68
2019-01-22T03:53:33.251Z,55.05
2019-01-22T03:56:28.873Z,52.17
2019-01-22T03:58:59.012Z,54.10
2019-01-22T04:01:30.960Z,58.13
2019-01-22T04:04:01.304Z,57.38
2019-01-22T04:06:34.390Z,55.75
2019-01-22T04:09:21.087Z,56.60
2019-01-22T04:11:51.839Z,54.38
2019-01-22T04:14:23.680Z,56.75
2019-01-22T04:16:53.895Z,45.15
2019-01-22T04:19:24.044Z,57.17
2019-01-22T04:21:54.252Z,60.25
2019-01-22T04:24:55.003Z,67.37
2019-01-22T04:28:02.787Z,69.62
2019-01-22T04:30:52.573Z,56.45
2019-01-22T04:34:09.148Z,49.45
2019-01-22T04:37:21.534Z,62.00
2019-01-22T04:40:06.404Z,55.48
2019-01-22T04:43:03.599Z,63.25
2019-01-22T04:46:39.432Z,55.63
2019-01-22T04:49:44.107Z,51.92
2019-01-22T04:52:43.570Z,59.83
2019-01-22T04:55:54.173Z,55.05
2019-01-22T04:58:47.279Z,43.23
2019-01-22T05:01:57.062Z,49.55
2019-01-22T05:04:56.684Z,52.73
2019-01-22T05:07:57.271Z,54.23
2019-01-22T05:11:15.083Z,58.25
2019-01-22T05:13:58.636Z,39.85
2019-01-22T05:17:18.747Z,49.58
2019-01-22T05:20:02.772Z,47.80
2019-01-22T05:23:09.584Z,53.68
2019-01-22T05:26:17.247Z,45.80
2019-01-22T05:29:29.727Z,50.83
2019-01-22T05:32:44.023Z,54.35
2019-01-22T05:35:47.180Z,52.25
2019-01-22T05:38:45.794Z,47.83
2019-01-22T05:41:41.077Z,57.25
2019-01-22T05:44:40.812Z,50.38
2019-01-22T05:47:53.483Z,48.83
2019-01-22T05:51:00.402Z,41.35
2019-01-22T05:54:25.237Z,49.05
2019-01-22T05:57:18.587Z,47.38
2019-01-22T06:00:57.320Z,38.88
2019-01-22T06:04:10.069Z,57.90
2019-01-22T06:06:55.293Z,41.37
2019-01-22T06:10:38.420Z,42.43
2019-01-22T06:13:36.304Z,31.93
2019-01-22T06:16:36.437Z,43.80
2019-01-22T06:19:32.453Z,33.67
2019-01-22T06:22:23.572Z,36.58
2019-01-22T06:25:28.078Z,47.93
2019-01-22T06:28:19.984Z,44.60
2019-01-22T06:31:36.068Z,43.23
2019-01-22T06:34:53.261Z,42.53
2019-01-22T06:37:36.136Z,52.95
2019-01-22T06:40:14.979Z,43.50
2019-01-22T06:43:02.606Z,30.75
2019-01-22T06:46:12.439Z,50.38
2019-01-22T06:49:17.282Z,42.43
2019-01-22T06:52:34.671Z,46.80
2019-01-22T06:55:40.460Z,45.45
2019-01-22T06:58:58.091Z,38.85
2019-01-22T07:02:15.388Z,37.05
2019-01-22T07:05:22.207Z,36.00
2019-01-22T07:08:35.459Z,47.88
2019-01-22T07:11:30.411Z,40.55
2019-01-22T07:14:26.567Z,52.75
2019-01-22T07:17:40.187Z,44.90
2019-01-22T07:20:54.504Z,48.65
2019-01-22T07:24:08.528Z,40.70
2019-01-22T07:26:54.184Z,39.85
2019-01-22T07:30:08.387Z,33.15
2019-01-22T07:32:55.873Z,45.73
2019-01-22T07:35:38.447Z,39.58
2019-01-22T07:38:33.095Z,43.20
2019-01-22T07:41:14.569Z,50.90
2019-01-22T07:44:18.454Z,47.95
2019-01-22T07:47:17.536Z,47.78
2019-01-22T07:50:26.125Z,33.50
2019-01-22T07:53:24.256Z,48.42
2019-01-22T07:56:51.299Z,42.35
2019-01-22T07:59:52.275Z,30.20
2019-01-22T08:02:47.236Z,35.00
2019-01-22T08:06:16.415Z,36.42
2019-01-22T08:09:27.583Z,37.63
2019-01-22T08:12:10.789Z,33.88
2019-01-22T08:15:30.140Z,30.95
2019-01-22T08:18:34.330Z,30.43
2019-01-22T08:21:39.572Z,34.75
2019-01-22T08:24:26.508Z,32.15
2019-01-22T08:27:31.346Z,38.05
2019-01-22T08:31:00.799Z,39.98
2019-01-22T08:33:54.523Z,36.58
2019-01-22T08:37:14.679Z,30.08
2019-01-22T08:40:33.683Z,40.65
2019-01-22T08:43:54.155Z,39.55
2019-01-22T08:47:07.207Z,32.58
2019-01-22T08:50:12.232Z,39.42
2019-01-22T08:53:16.494Z,55.48
2019-01-22T08:56:24.471Z,48.40
2019-01-22T08:59:20.503Z,32.10
2019-01-22T09:02:30.750Z,31.82
2019-01-22T09:05:33.435Z,29.15
2019-01-22T09:08:22.594Z,34.15
2019-01-22T09:11:29.760Z,42.75
2019-01-22T09:14:33.183Z,46.53
2019-01-22T09:17:59.704Z,36.77
2019-01-22T09:21:06.896Z,36.28
2019-01-22T09:24:23.835Z,38.30
2019-01-22T09:27:37.071Z,32.17
2019-01-22T09:30:35.075Z,37.90
2019-01-22T09:33:52.348Z,35.70
2019-01-22T09:36:38.331Z,41.33
2019-01-22T09:39:12.451Z,38.53
2019-01-22T09:41:42.732Z,27.20
2019-01-22T09:44:12.953Z,44.15
2019-01-22T09:46:43.115Z,38.08
2019-01-22T09:49:13.299Z,40.65
2019-01-22T09:51:43.497Z,37.93
2019-01-22T09:54:13.703Z,40.50
2019-01-22T09:56:43.880Z,38.40
2019-01-22T09:59:14.052Z,27.60
2019-01-22T10:01:44.247Z,33.63
2019-01-22T10:04:14.447Z,35.35
2019-01-22T10:06:44.623Z,30.32
2019-01-22T10:09:14.886Z,40.33
2019-01-22T10:11:45.088Z,40.08
2019-01-22T10:14:15.275Z,40.20
2019-01-22T10:16:45.433Z,38.95
2019-01-22T10:19:15.754Z,32.60
2019-01-22T10:21:45.928Z,30.48
2019-01-22T10:24:16.125Z,41.35
2019-01-22T10:26:46.398Z,30.52
2019-01-22T10:29:16.616Z,27.80
2019-01-22T10:31:50.355Z,41.48
2019-01-22T10:34:18.659Z,27.73
2019-01-22T10:36:48.991Z,34.78
2019-01-22T10:39:19.174Z,42.48
2019-01-22T10:41:49.361Z,44.50
2019-01-22T10:44:19.531Z,30.57
2019-01-22T10:46:49.732Z,28.02
2019-01-22T10:49:19.975Z,38.70
2019-01-22T10:51:50.175Z,38.48
2019-01-22T10:54:20.334Z,25.60
2019-01-22T10:56:50.540Z,37.33
2019-01-22T10:59:20.799Z,32.23
2019-01-22T11:01:51.028Z,38.25
2019-01-22T11:04:21.294Z,33.42
2019-01-22T11:06:51.491Z,37.98
2019-01-22T11:09:21.660Z,35.23
2019-01-22T11:11:51.864Z,41.33
2019-01-22T11:14:22.064Z,36.08
2019-01-22T11:16:53.812Z,32.63
2019-01-22T11:19:27.796Z,35.28
2019-01-22T11:21:55.879Z,40.33
2019-01-22T11:24:30.257Z,40.48
2019-01-22T11:26:59.059Z,27.02
2019-01-22T11:29:29.291Z,31.95
2019-01-22T11:31:59.531Z,31.33
2019-01-22T11:34:29.727Z,33.75
2019-01-22T11:36:59.934Z,32.48
2019-01-22T11:39:30.122Z,42.70
2019-01-22T11:42:03.168Z,34.57
2019-01-22T11:44:33.364Z,38.10
2019-01-22T11:47:04.775Z,42.43
2019-01-22T11:49:35.080Z,44.05
2019-01-22T11:52:05.329Z,28.70
2019-01-22T11:54:35.466Z,34.77
2019-01-22T11:57:05.666Z,29.67
2019-01-22T11:59:35.948Z,31.60
2019-01-22T12:02:06.531Z,46.02
2019-01-22T12:04:36.768Z,39.83
2019-01-22T12:07:06.936Z,37.83
2019-01-22T12:09:37.524Z,34.57
2019-01-22T12:12:07.714Z,35.65
2019-01-22T12:14:37.896Z,41.37
2019-01-22T12:17:08.080Z,34.67
2019-01-22T12:19:38.247Z,34.33
2019-01-22T12:22:08.436Z,35.90
2019-01-22T12:24:38.624Z,50.13
2019-01-22T12:27:08.804Z,47.00
2019-01-22T12:29:38.973Z,49.73
2019-01-22T12:32:09.256Z,47.63
2019-01-22T12:34:39.436Z,42.90
2019-01-22T12:37:09.735Z,42.83
2019-01-22T12:39:40.038Z,50.67
2019-01-22T12:42:10.298Z,38.30
2019-01-22T12:44:41.810Z,44.57
2019-01-22T12:47:12.114Z,34.80
2019-01-22T12:49:42.388Z,49.23
2019-01-22T12:52:12.601Z,47.20
2019-01-22T12:54:42.902Z,43.58
2019-01-22T12:57:13.098Z,39.93
2019-01-22T12:59:43.377Z,39.08
2019-01-22T13:02:13.580Z,40.73
2019-01-22T13:04:43.795Z,45.63
2019-01-22T13:07:14.012Z,47.00
2019-01-22T13:09:44.170Z,40.83
2019-01-22T13:12:14.580Z,49.80
2019-01-22T13:14:44.755Z,38.75
2019-01-22T13:17:14.942Z,46.90
2019-01-22T13:19:45.136Z,49.77
2019-01-22T13:22:15.387Z,39.48
2019-01-22T13:24:45.612Z,47.10
2019-01-22T13:27:15.781Z,50.23
2019-01-22T13:29:45.981Z,48.58
2019-01-22T13:32:16.239Z,44.65
2019-01-22T13:34:46.524Z,45.15
2019-01-22T13:37:16.861Z,43.95
2019-01-22T13:39:47.119Z,39.18
2019-01-22T13:42:17.445Z,39.38
2019-01-22T13:44:47.648Z,38.97
2019-01-22T13:47:17.935Z,41.20
2019-01-22T13:49:48.169Z,34.88
2019-01-22T13:52:18.385Z,53.63
2019-01-22T13:54:48.565Z,40.95
2019-01-22T13:57:18.739Z,41.50
2019-01-22T13:59:48.934Z,37.83
2019-01-22T14:02:19.145Z,46.20
2019-01-22T14:04:49.555Z,59.05
2019-01-22T14:07:19.755Z,30.40
2019-01-22T14:09:49.984Z,45.10
2019-01-22T14:12:20.253Z,42.45
2019-01-22T14:14:50.633Z,38.58
2019-01-22T14:17:20.936Z,41.63
2019-01-22T14:19:51.184Z,48.30
2019-01-22T14:22:23.758Z,38.53
2019-01-22T14:24:56.451Z,39.95
2019-01-22T14:27:26.640Z,42.13
2019-01-22T14:29:56.875Z,54.95
2019-01-22T14:32:27.215Z,35.87
2019-01-22T14:34:57.399Z,46.95
2019-01-22T14:37:27.583Z,50.10
2019-01-22T14:39:57.767Z,51.30
2019-01-22T14:42:27.996Z,56.20
2019-01-22T14:44:58.191Z,48.17
2019-01-22T14:47:28.419Z,55.33
2019-01-22T14:49:58.629Z,35.23
2019-01-22T14:52:28.823Z,40.65
2019-01-22T14:54:59.013Z,39.70
2019-01-22T14:57:29.343Z,43.38
2019-01-22T14:59:59.623Z,37.70
2019-01-22T15:02:30.912Z,40.70
2019-01-22T15:05:01.099Z,54.00
2019-01-22T15:07:31.278Z,52.50
2019-01-22T15:10:01.587Z,40.78
2019-01-22T15:12:32.838Z,42.85
2019-01-22T15:15:03.055Z,46.30
2019-01-22T15:17:33.250Z,53.25
2019-01-22T15:20:09.352Z,38.78
2019-01-22T15:22:39.550Z,38.88
2019-01-22T15:25:10.460Z,44.23
2019-01-22T15:27:40.688Z,42.58
2019-01-22T15:30:37.068Z,38.08
2019-01-22T15:33:08.389Z,40.05
2019-01-22T15:35:38.573Z,35.95
2019-01-22T15:38:08.779Z,42.58
2019-01-22T15:40:38.964Z,45.95
2019-01-22T15:43:10.667Z,65.15
2019-01-22T15:45:40.852Z,49.42
2019-01-22T15:48:11.090Z,47.03
2019-01-22T15:50:41.406Z,41.23
2019-01-22T15:53:11.612Z,58.92
2019-01-22T15:55:47.874Z,61.98
2019-01-22T15:58:13.685Z,56.25
2019-01-22T16:00:45.360Z,60.08
2019-01-22T16:03:15.653Z,58.83
2019-01-22T16:05:45.884Z,53.45
2019-01-22T16:08:16.071Z,67.62
2019-01-22T16:10:46.251Z,39.48
2019-01-22T16:13:16.470Z,63.63
2019-01-22T16:15:46.735Z,45.12
2019-01-22T16:18:16.937Z,40.50
2019-01-22T16:20:47.168Z,57.10
2019-01-22T16:23:17.334Z,58.02
2019-01-22T16:25:47.551Z,49.80
2019-01-22T16:28:17.720Z,76.90
2019-01-22T16:30:47.935Z,61.10
2019-01-22T16:33:18.243Z,50.03
2019-01-22T16:35:48.424Z,57.55
2019-01-22T16:38:18.615Z,56.35
2019-01-22T16:40:48.789Z,56.88
2019-01-22T16:43:19.048Z,50.15
2019-01-22T16:45:49.312Z,56.70
2019-01-22T16:48:19.501Z,83.00
2019-01-22T16:50:50.764Z,70.35
2019-01-22T16:53:22.278Z,72.20
2019-01-22T16:55:52.497Z,63.63
2019-01-22T16:58:22.670Z,53.98
2019-01-22T17:00:52.864Z,50.90
2019-01-22T17:03:23.263Z,56.60
2019-01-22T17:05:53.565Z,50.67
2019-01-22T17:08:23.782Z,51.10
2019-01-22T17:10:53.997Z,67.62
2019-01-22T17:13:24.210Z,54.35
2019-01-22T17:15:57.573Z,51.68
2019-01-22T17:18:27.755Z,65.90
2019-01-22T17:20:58.059Z,47.27
2019-01-22T17:23:28.237Z,55.60
2019-01-22T17:25:58.463Z,64.10
2019-01-22T17:28:28.616Z,57.05
2019-01-22T17:30:59.807Z,62.25
2019-01-22T17:33:37.336Z,46.45
2019-01-22T17:36:07.787Z,50.30
2019-01-22T17:38:39.847Z,66.82
2019-01-22T17:41:10.055Z,68.83
2019-01-22T17:43:40.244Z,50.00
2019-01-22T17:46:10.480Z,41.20
2019-01-22T17:48:40.731Z,64.10
2019-01-22T17:51:10.922Z,63.52
2019-01-22T17:53:41.185Z,67.75
2019-01-22T17:56:11.361Z,73.00
2019-01-22T17:58:41.567Z,73.57
2019-01-22T18:01:11.820Z,56.10
2019-01-22T18:03:42.049Z,54.80
2019-01-22T18:06:12.213Z,77.45
2019-01-22T18:08:42.423Z,66.40
2019-01-22T18:11:12.592Z,61.45
2019-01-22T18:13:42.784Z,53.80
2019-01-22T18:16:12.948Z,64.82
2019-01-22T18:18:46.259Z,70.83
2019-01-22T18:21:15.148Z,55.90
2019-01-22T18:23:45.360Z,60.23
2019-01-22T18:26:15.569Z,49.50
2019-01-22T18:28:45.737Z,57.67
2019-01-22T18:31:15.931Z,70.35
2019-01-22T18:33:46.208Z,62.75
2019-01-22T18:36:16.403Z,67.97
2019-01-22T18:38:46.679Z,70.37
2019-01-22T18:41:18.347Z,65.60
2019-01-22T18:43:48.617Z,54.48
2019-01-22T18:46:21.790Z,65.65
2019-01-22T18:48:52.088Z,58.33
2019-01-22T18:51:22.499Z,63.30
2019-01-22T18:53:52.704Z,68.52
2019-01-22T18:56:22.924Z,61.45
2019-01-22T18:58:54.215Z,57.13
2019-01-22T19:01:24.491Z,63.55
2019-01-22T19:03:54.723Z,76.02
2019-01-22T19:06:24.910Z,62.90
2019-01-22T19:08:55.212Z,77.12
2019-01-22T19:11:25.420Z,75.08
2019-01-22T19:13:55.636Z,65.78
2019-01-22T19:16:25.824Z,77.20
2019-01-22T19:18:56.017Z,79.85
2019-01-22T19:21:27.406Z,65.95
2019-01-22T19:23:57.640Z,73.72
2019-01-22T19:26:28.033Z,88.40
2019-01-22T19:28:58.243Z,66.82
2019-01-22T19:31:28.513Z,82.80
2019-01-22T19:33:58.719Z,72.62
2019-01-22T19:36:28.889Z,69.40
2019-01-22T19:38:59.224Z,87.75
2019-01-22T19:41:29.448Z,66.80
2019-01-22T19:43:59.611Z,59.03
2019-01-22T19:46:30.023Z,66.28
2019-01-22T19:49:00.221Z,67.58
2019-01-22T19:51:30.439Z,62.98
2019-01-22T19:54:00.620Z,54.55
2019-01-22T19:56:30.856Z,63.38
2019-01-22T19:59:01.048Z,63.75
2019-01-22T20:01:31.239Z,65.62
2019-01-22T20:04:01.521Z,48.55
2019-01-22T20:06:31.741Z,71.87
2019-01-22T20:09:01.992Z,53.42
2019-01-22T20:11:33.948Z,61.55
2019-01-22T20:14:04.464Z,75.22
2019-01-22T20:16:34.636Z,66.02
2019-01-22T20:19:04.833Z,54.70
2019-01-22T20:21:36.112Z,66.17
2019-01-22T20:24:06.307Z,58.48
2019-01-22T20:26:36.517Z,61.77
2019-01-22T20:29:06.690Z,71.02
2019-01-22T20:31:36.917Z,59.80
2019-01-22T20:34:07.111Z,61.80
2019-01-22T20:36:37.424Z,50.50
2019-01-22T20:39:09.968Z,59.55
2019-01-22T20:41:40.177Z,61.77
2019-01-22T20:44:12.158Z,72.20
2019-01-22T20:46:43.433Z,73.33
2019-01-22T20:49:13.604Z,60.33
2019-01-22T20:51:43.811Z,54.80
2019-01-22T20:54:14.001Z,47.45
2019-01-22T20:56:44.892Z,56.95
2019-01-22T20:59:15.239Z,37.25
2019-01-22T21:01:45.448Z,61.45
2019-01-22T21:04:15.692Z,75.22
2019-01-22T21:06:45.980Z,52.78
2019-01-22T21:09:16.269Z,59.60
2019-01-22T21:11:46.603Z,67.50
2019-01-22T21:14:16.901Z,48.25
2019-01-22T21:16:47.109Z,71.67
2019-01-22T21:19:17.288Z,69.75
2019-01-22T21:21:47.483Z,65.67
2019-01-22T21:24:17.675Z,71.75
2019-01-22T21:26:47.901Z,43.17
2019-01-22T21:29:18.268Z,50.28
2019-01-22T21:31:48.437Z,62.85
2019-01-22T21:34:18.621Z,75.10
2019-01-22T21:36:53.143Z,58.20
2019-01-22T21:39:20.704Z,80.35
2019-01-22T21:41:50.929Z,54.85
2019-01-22T21:44:21.143Z,56.20
2019-01-22T21:46:51.349Z,49.75
2019-01-22T21:49:21.600Z,75.80
2019-01-22T21:51:51.792Z,70.35
2019-01-22T21:54:22.080Z,75.15
2019-01-22T21:56:52.295Z,60.40
2019-01-22T21:59:22.490Z,79.27
2019-01-22T22:01:52.699Z,70.92
2019-01-22T22:04:22.932Z,64.35
2019-01-22T22:06:53.186Z,73.83
2019-01-22T22:09:23.385Z,66.20
2019-01-22T22:11:53.556Z,62.60
2019-01-22T22:14:23.760Z,61.40
2019-01-22T22:16:53.914Z,55.17
2019-01-22T22:19:23.807Z,67.08
2019-01-22T22:21:54.091Z,64.05
2019-01-22T22:24:24.296Z,45.17
2019-01-22T22:26:54.526Z,65.05
2019-01-22T22:29:24.695Z,58.05
2019-01-22T22:31:54.992Z,55.40
2019-01-22T22:34:25.158Z,42.75
2019-01-22T22:36:55.360Z,45.25
2019-01-22T22:39:26.736Z,56.83
2019-01-22T22:41:56.975Z,68.62
2019-01-22T22:44:27.163Z,56.98
2019-01-22T22:46:57.443Z,59.30
2019-01-22T22:49:27.616Z,56.92
2019-01-22T22:51:57.795Z,66.97
2019-01-22T22:54:28.072Z,66.67
2019-01-22T22:56:58.273Z,64.60
2019-01-22T22:59:28.426Z,59.25
2019-01-22T23:01:58.642Z,63.92
2019-01-22T23:04:28.865Z,53.25
2019-01-22T23:06:59.096Z,55.67
2019-01-22T23:09:29.284Z,77.12
2019-01-22T23:11:59.473Z,63.30
2019-01-22T23:14:29.669Z,51.48
2019-01-22T23:17:00.061Z,67.08
2019-01-22T23:19:30.242Z,73.07
2019-01-22T23:22:00.440Z,87.10
2019-01-22T23:24:30.615Z,65.03
2019-01-22T23:27:00.848Z,62.90
2019-01-22T23:29:31.043Z,58.55
2019-01-22T23:32:02.202Z,81.17
2019-01-22T23:34:32.444Z,59.48
2019-01-22T23:37:02.627Z,67.80
2019-01-22T23:39:32.812Z,58.63
2019-01-22T23:42:02.991Z,73.52
2019-01-22T23:44:33.195Z,74.07
2019-01-22T23:47:05.332Z,71.40
2019-01-22T23:49:35.495Z,65.47
2019-01-22T23:52:05.931Z,85.35
2019-01-22T23:54:36.117Z,43.08
2019-01-22T23:57:07.284Z,61.30
2019-01-22T23:59:37.488Z,61.63
